Te-Co T-Slot Nuts - English Sizes

t-nut

Order on Line add to cart

T-Slot Nuts - English Sizes


 
T-Slot Nuts - English

 • Black Oxide Finish
 • Case Hardened
 • 1018 Material
 • The last thread is incomplete on T-Slot Nuts to prevent the stud from turning through the bottom of the nut.
 • Standard package quantity:
 41401-41419 - 25 pcs.
 61401-61413 - 25 pcs.
 • Tapped through T-Slot Nuts are also available -- to order tapped through, add a "T" after the above part No.'s (ex: 41412T)

NOTE: Tapped Through is not available for Part
 No.'s 41426 to -32 and 61412-13.
 • Many sizes conform to TCMAI standards
 • Special sizes quoted upon request

 *T-Slot Nuts are undersized to fit machine table slot
 **English T-Slot Nut will fit this size metric machine T-Slot
 


Item # Thread Size (A) Table Slot B Total Height (C) D Total Length (E) Total Width (F)
             
TE-41401 1/4-20  0.313 in8.00 mm 0.250 in 3/16 in 0.563 in 0.563 in
TE-41402 1/4-20  0.375 in10.00 mm 0.375 in 7/32 in 0.563 in 0.563 in
TE-41403 5/16-18  0.375 in10.00 mm 0.375 in 1/4 in 0.625 in 0.875 in
TE-41433 5/16-18  0.438 in12.00 mm 0.500 in 7/32 in 0.688 in 0.875 in
TE-41434 5/16-18  0.500 in13.00 mm 0.500 in 9/32 in 0.875 in 0.875 in
TE-41404 3/8-16  0.438 in12.00 mm 0.500 in 7/32 in 0.688 in 0.875 in
TE-41405 3/8-16  0.500 in13.00 mm 0.500 in 9/32 in 0.875 in 0.875 in
TE-41406 3/8-16  0.563 in15.00 mm 0.625 in 11/32 in 0.875 in 1.125 in
TE-41407 7/16-14  0.500 in13.00 mm 0.500 in 9/32 in 0.875 in 0.875 in
TE-41408 7/16-14  0.500 in13.00 mm 0.375 in 7/32 in 0.750 in 0.875 in
TE-41409 1/2-13  0.563 in15.00 mm 0.625 in 11/32 in 0.875 in 1.125 in
TE-41410 1/2-13  0.625 in16.00 mm 0.625 in 11/32 in 1.000 in 1.125 in
TE-41411 1/2-13  0.625 in16.00 mm 0.750 in 3/8 in 1.125 in 1.125 in
TE-41412 1/2-13  0.688 in18.00 mm 0.750 in 7/16 in 1.125 in 1.250 in
TE-41413 1/2-13  0.750 in20.00 mm 0.750 in 15/32 in 1.250 in 1.250 in
TE-41415 5/8-11  0.688 in18.00 mm 0.750 in 7/16 in 1.125 in 1.250 in
TE-41416 5/8-11  0.750 in20.00 mm 0.750 in 15/32 in 1.250 in 1.250 in
TE-41417 5/8-11  0.813 in21.00 mm 1.000 in 9/16 in 1.250 in 1.500 in
TE-41418 3/4-10  0.813 in21.00 mm 1.000 in 9/16 in 1.250 in 1.500 in
TE-41419 3/4-10  0.875 in23.00 mm 1.000 in 9/16 in 1-1/2 in 1.500 in
TE-41420 3/4-10  1.000 in26.00 mm 1.000 in 5/8 in 1.625 in 1.750 in
TE-41421 3/4-10  1.000 in26.00 mm 1.500 in 3/4 in 1.750 in 1.750 in
TE-41422 3/4-10  1.063 in27.00 mm 1.125 in 11/16 in 1.625 in 2.000 in
TE-41423 7/8-9  1.000 in26.00 mm 1.000 in 5/8 in 1.625 in 1.750 in
TE-41424 7/8-9  1.063 in27.00 mm 1.125 in 11/16 in 1.625 in 2.000 in
             
             
Item # Thread Size (A) Table Slot B Total Height (C) D Total Length (E) Total Width (F)
TE-41425 7/8-9  1.125 in29.00 mm 1.500 in 3/4 in 1.750 in 2.000 in
TE-41429 7/8-9  1.313 in34.00 mm 1.250 in 15/16 in 2.000 in 2.000 in
TE-41426 1-8  1.063 in27.00 mm 1.125 in 11/16 in 1.625 in 2.000 in
TE-41427 1-8  1.125 in29.00 mm 1.500 in 3/4 in 1.750 in 2.000 in
TE-41428 1-8  1.250 in32.00 mm 1.250 in 7/8 in 2.000 in 2.000 in
TE-41430 1-8  1.313 in34.00 mm 1.250 in 15/16 in 2.000 in 2.000 in
TE-41432 1-1/4-7  1.375 in36.00 mm 1.750 in 1 1/8 in 2-1/2 in 2.500 in
TE-41470 1/4-20  0.375 in10.00 mm 0.375 in 1/4 in 0.625 in 0.875 in
TE-41471 5/16-18  0.438 in12.00 mm 0.500 in 7/32 in 0.750 in 1.000 in
TE-41472 3/8-16  0.438 in12.00 mm 0.500 in 7/32 in 0.750 in 1.000 in
TE-41473 3/8-16  0.500 in13.00 mm 0.500 in 9/32 in 0.875 in 1.000 in
TE-41474 3/8-16  0.563 in15.00 mm 0.625 in 11/32 in 0.875 in 1.000 in
TE-41476 3/8-16  0.625 in16.00 mm 0.625 in 3/8 in 1.000 in 1.000 in
TE-41478 3/8-16  0.625 in16.00 mm 0.875 in 7/16 in 1.188 in 1.188 in
TE-41475 1/2-13  0.563 in15.00 mm 0.625 in 11/32 in 0.875 in 1.000 in
TE-41477 1/2-13  0.625 in16.00 mm 0.625 in 3/8 in 1.000 in 1.000 in
TE-41479 1/2-13  0.625 in16.00 mm 0.875 in 7/16 in 1.188 in 1.188 in
TE-41480 1/2-13  0.688 in18.00 mm 0.750 in 13/32 in 1.125 in 1.125 in
TE-41481 5/8-11  0.688 in18.00 mm 0.750 in 13/32 in 1.125 in 1.125 in
TE-41482 5/8-11  0.750 in20.00 mm 0.750 in 1/2 in 1.250 in 1.125 in
TE-41483 5/8-11  0.813 in21.00 mm 1.000 in 9/16 in 1.375 in 1.500 in
TE-41484 3/4-10  0.813 in21.00 mm 1.000 in 9/16 in 1.375 in 1.500 in
TE-41486 3/4-10  0.813 in21.00 mm 1.000 in 17/32 in 1.250 in 1.500 in
TE-41485 3/4-10  0.875 in23.00 mm 1.000 in 5/8 in 1-1/2 in 1.500 in
TE-41487 3/4-10  1.000 in26.00 mm 1.250 in 3/4 in 1-1/2 in 1.500 in
             
             
Item # Thread Size (A) Table Slot B Total Height (C) D Total Length (E) Total Width (F)
             
TE-41488 7/8-9  1.000 in26.00 mm 1.500 in 3/4 in 1.750 in 1.500 in
TE-41490 7/8-9  1.063 in27.00 mm 1.500 in 3/4 in 1.750 in 1.500 in
TE-41489 7/8-9  1.125 in29.00 mm 1.500 in 3/4 in 1.750 in 1.500 in
TE-41491 1-8  1.125 in29.00 mm 1.500 in 3/4 in 1.750 in 1.750 in

 

link to Te-Co product index

 


servicing the Canadian provinces and territories of Newfoundland, NF, NL, Nova Scotia, NS, New Brunswick, NB, Prince Edward Island, PEI, PE, Quebec, PQ, QC, Ontario, ON, Manitoba, MB, Saskatchewan, SK, Alberta, AB, British Columbia, BC, Northwest Territories, NT, Nunavut, NU, Yukon, YT, servicing Canadian cities, Toronto, Mississauga, Scarborough, Laval , Montreal, Montréal, Vancouver, Ottawa, Gatineau, Calgary, Edmonton, Québec City, Winnipeg, Hamilton, Kitchener, Cambridge, Waterloo, London, St. Catharines , Niagara, Halifax, Oshawa, Victoria, Windsor, Saskatoon, Regina, Sherbrooke, St. John's, Barrie, Kelowna, Abbotsford, Mission, Sudbury Kingston, Saguenay, Trois-Rivieres, Trois Rivieres, Trois-Rivières, Guelph, Moncton, Brantford, Saint John, Thunder Bay, Peterborough, Ajax, Aurora, Brampton, Brock, Burlington, Caledon, Clarington, Durham Region, Oshawa, Pickering, Whitby, Halton Hills, Milton, Oakville, Mississauga, New market, Richmond Hill, Vaughn, Orangeville, servicing US cities, New York, Los Angeles, Chicago, Houston, Philadelphia, Phoenix, San Antonio, San Diego, Dallas, San Jose, Austin, Jacksonville, San Francisco, Indianapolis, Columbus, Fort Worth, Charlotte, Seattle, Denver, El Paso, Detroit, Washington, Boston, Memphis, Nashville, Portland, Oklahoma City, Las Vegas, Baltimore, Louisville, Milwaukee, Albuquerque, Tucson, Fresno, Sacramento, Kansas City, Long Beach, Mesa, Raleigh, Omaha, Miami, Oakland, Minneapolis, Tulsa, Wichita, New Orleans, Arlington, Cleveland, Bakersfield, Tampa, Aurora, Honolulu, Anaheim, Santa Ana, Corpus Christi, Riverside, St. Louis, Lexington, Stockton, Pittsburgh, Saint Paul, Anchorage, Cincinnati, Henderson, Greensboro, Plano, Newark, Toledo, Lincoln, Orlando, Chula Vista, Jersey City, Chandler, Fort Wayne, Buffalo, Durham, St. Petersburg, Irvine, Laredo, Lubbock, Madison, Gilbert, Norfolk, Reno, Winston Salem, Glendale, Hialeah, Garland, Scottsdale, Chesapeake, North Las Vegas, Fremont, Baton Rouge, Richmond, Boise, San Bernardino, Spokane, Birmingham, Modesto, Des Moines, Rochester, Tacoma, Fontana, Oxnard, Moreno Valley, Fayetteville, Huntington Beach, Yonkers, Glendale, Aurora, Montgomery, Columbus, Amarillo, Little Rock, Akron, Shreveport, Augusta, Grand Rapids, Mobile, Salt Lake City, Huntsville, Tallahassee, Grand Prairie, Overland Park, Knoxville, Worcester, Brownsville, Newport News, Santa Clarita, Port St. Lucie, Providence, Fort Lauderdale, Chattanooga, Tempe, Oceanside, Garden Grove, Rancho Cucamonga, Cape Coral, Santa Rosa, Vancouver, Sioux Falls, Peoria, Ontario, Jackson, Elk Grove, Springfield, Pembroke Pines, Salem, Corona, Eugene, McKinney, Fort Collins, Lancaster, Cary, Palmdale, Hayward, Salinas, Frisco, Springfield, Pasadena, Macon, Alexandria, Pomona, Lakewood, Sunnyvale, Escondido, Kansas City, Hollywood, Clarksville, Torrance, Rockford, Joliet, Paterson, Bridgeport, Naperville, Savannah, Mesquite, Syracuse, Pasadena, Orange, Fullerton, Killeen, Dayton, McAllen, Bellevue, Miramar, Hampton, West Valley City, Warren, Olathe, Columbia, Thornton, Carrollton, Midland, Charleston, Waco and the states of Alabama, AL, Alaska, AK, Arizona, AZ, Arkansas, AR, California, CA, Colorado, CO, Connecticut, CT, Delaware, DE, District of Columbia, DC, Florida, FL, Georgia, GA, Hawaii, HI, Idaho, ID, Illinois, IL, Indiana, IN, Iowa, IA, Kansas, KS, Kentucky, KY, Louisiana, LA, Maine, ME, Maryland, MD, Massachusetts, MA, Michigan, MI, Minnesota, MN, Mississippi, MS, Missouri, MO, Montana, MT, Nebraska, NE, Nevada, NV, New Hampshire, NH, New Jersey, NJ, New Mexico, NM, New York, NY, North Carolina, NC, North Dakota, ND, Ohio, OH, Oklahoma, OK, Oregon, OR, Pennsylvania, PA, Rhode Island, RI, South Carolina, SC, South Dakota, SD, Tennessee, TN, Texas, TX, Utah, UT, Vermont, VT, Virginia, VA, Washington, WA, West Virginia, WV, Wisconsin, WI, Wyoming, WY We can ship to Afghanistan , Aland Islands , Albania , Algeria , American Samoa , AS, Andorra , Angola , Anguilla , Antigua and Barbuda , Argentina , Armenia , Aruba , Australia , Austria , Azerbaijan , Azores , Bahamas , Bahrain , Bangladesh , Barbados , Belarus , Belgium , Belize , Benin , Bermuda , Bhutan , Bolivia , Bonaire , Bosnia , Botswana , Brazil , British Virgin Isles , Brunei , Bulgaria , Burkina Faso , Burundi , Cambodia , Cameroon , Canada , Canary Islands , Cape Verde , Cayman Islands , Central African Republic , Chad , Chile , China , Colombia , Comoros , Congo , Cook Islands , Costa Rica , Croatia , Curacao , Cyprus , Czech Republic , Democratic Republic of Congo , Denmark , Djibouti , Dominica , Dominican Republic , Ecuador , Egypt , El Salvador , England , Equatorial Guinea , Eritrea , Estonia , Ethiopia , Faeroe Islands , Fiji , Finland , France , French Guiana , French Polynesia , Gabon , Gambia , Georgia , Germany , Ghana , Gibraltar , Greece , Greenland , Grenada , Guadeloupe , Guam , GU, Guatemala , Guernsey , Guinea , Guinea-Bissau , Guyana , Haiti , Holland , Honduras , Hong Kong , Hungary , Iceland , India , Indonesia , Iraq , Ireland , Israel , Italy , Ivory Coast , Jamaica , Japan , Jersey , Jordan , Kazakhstan , Kenya , Kiribati , Kosrae , Kuwait , Kyrgyzstan , Laos , Latvia , Lebanon , Lesotho , Liberia , Libya , Liechtenstein , Lithuania , Luxembourg , Macau , Macedonia (Fyrom) , Madagascar , Madeira , Malawi , Malaysia , Maldives , Mali , Malta , Marshall Islands , MH, Martinique , Mauritania , Mauritius , Mayotte , Mexico , Micronesia , Moldova , Monaco , Mongolia , Montenegro , Montserrat , Morocco , Mozambique , N. Mariana Islands , Namibia , Nepal , Netherlands , Netherlands Antilles , New Caledonia , New Zealand , Nicaragua , Niger , Nigeria , Norfolk Island , Northern Ireland , Norway , Oman , Pakistan , Palau , PW, Panama , Papua New Guinea , Paraguay , Peru , Philippines , Poland , Ponape , Portugal , Puerto Rico , PR, Qatar , Reunion , Romania , Rota , Russia , Rwanda , Saba , Saipan , San Marino , Saudi Arabia , Scotland , Senegal , Serbia , Seychelles , Sierra Leone , Singapore , Slovakia , Slovenia , Solomon Islands , South Africa , South Korea , Spain , Sri Lanka , St. Barthelemy , St. Christopher , St. Croix , St. Eustatius , St. John , St. Kitts and Nevis , St. Lucia , St. Maarten , St. Martin , St. Thomas , St. Vincent/Grenadines , Suriname , Swaziland , Sweden , Switzerland , Syria , Tahiti , Taiwan , Tajikistan , Tanzania , Thailand , Timor Leste , Tinian , Togo , Tonga , Tortola , Trinidad and Tobago , Truk , Tunisia , Turkey , Turkmenistan , Turks and Caicos Islands , Tuvalu , Uganda , Ukraine , Union Island , United Arab Emirates , United Kingdom , United States , Uruguay, US Virgin Islands , VI, Uzbekistan , Vanatu , Vatican City State , Venezuela , Vietnam , Virgin Gorda , Wales , Wallia and Futuna Islands , Western Samoa , Yap , Yemen , Zambia , Zimbabwe
we try to ship to the world largest cities Tokyo,Japan, Seoul, South Korea, Mexico City, Mexico , New York City, USA , Mumbai, India , Jakarta, Indonesia , Sáo Paulo, Brazil, Delhi, India , Osaka/Kobe, Japan , Shanghai, China , Manila, Philippines ,Los Angeles, USA ,Calcutta, India , Moscow, Russian Fed., Cairo, Egypt, Lagos, Nigeria, Buenos Aires, Argentina , London, United Kingdom , Beijing, China , Karachi, Pakistan , Dhaka, Bangladesh , Rio de Janeiro, Brazil ,Tianjin, China , Paris, France , Istanbul, Turkey , Lima, Peru , Tehrãn, Iran, Bangkok, Thailand , Chicago, USA , Bogotá, Colombia , Hyderabad, India , Chennai, India , Essen, Germany , Ho Chi Minh City, Vietnam , Hangzhou, China , Hong Kong, China , Lahore, Pakistan , Shenyang, China , Changchun, China , Bangalore, India , Harbin, China , Chengdu, China , Santiago, Chile ,Guangzhou, China , St. Petersburg, Russian Fed , Kinshasa, DRC , Baghdãd, Iraq , Jinan, China , Houston, USA , Toronto, Canada, Yangon, Myanmar (Burma), Alger, Algeria Philadelphia, USA, Qingdao, China , Milano, Italy , Pusan, South Korea, Belo Horizonte, Brazil, Almadabad, India , Madrid, Spain , San Francisco, USA, Alexandria, Egypt , Washington DC, USA , Wuhan, China , Dallas, USA , Guadalajara, Mexico, Chongging, China , Medellin, Colombia, Detroit, USA , Handan, China , Frankfurt, Germany , Porto Alegre, Brazil , Hanoi, Vietnam , Sydney, Australia, Santo Domingo, Dom. Rep., Singapore, Singapore , Casablanca, Morocco , Katowice, Poland , Pune, India , Bangdung, Indonesia, Monterrey, Mexico ,Montréal, Canada , Nagoya, Japan , Nanjing, China , Abidjan, Côte d'Ivoire, Xi'an, China , Berlin, Germany , Riyadh, Saudi Arabia, Recife, Brazil , Dusseldorf, Germany, Ankara, Turkey , Melbourne, Australia, Salvador, Brazil , Dalian, China , Caracas, Venezuela, Adis Abeba, Ethiopia, Athina, Greece, Cape Town, South Africa, Koln, Germany , Maputo, Mozambique, Napoli, Italy